sensor_id;sensor_type;location;lat;lon;timestamp;temperature;humidity
47576;DHT22;33304;52.456;13.328;2024-03-07T00:00:43;7.50;99.90
47576;DHT22;33304;52.456;13.328;2024-03-07T00:03:10;7.50;99.90
47576;DHT22;33304;52.456;13.328;2024-03-07T00:05:37;7.50;99.90
47576;DHT22;33304;52.456;13.328;2024-03-07T00:08:05;7.60;99.90
47576;DHT22;33304;52.456;13.328;2024-03-07T00:10:32;7.60;99.90
47576;DHT22;33304;52.456;13.328;2024-03-07T00:13:02;7.60;99.90
47576;DHT22;33304;52.456;13.328;2024-03-07T00:15:30;7.50;99.90
47576;DHT22;33304;52.456;13.328;2024-03-07T00:17:57;7.60;99.90
47576;DHT22;33304;52.456;13.328;2024-03-07T00:20:26;7.60;99.90
47576;DHT22;33304;52.456;13.328;2024-03-07T00:22:53;7.70;99.90
47576;DHT22;33304;52.456;13.328;2024-03-07T00:25:20;7.60;99.90
47576;DHT22;33304;52.456;13.328;2024-03-07T00:27:48;7.60;99.90
47576;DHT22;33304;52.456;13.328;2024-03-07T00:30:18;7.60;99.90
47576;DHT22;33304;52.456;13.328;2024-03-07T00:32:47;7.50;99.90
47576;DHT22;33304;52.456;13.328;2024-03-07T00:35:14;7.50;99.90
47576;DHT22;33304;52.456;13.328;2024-03-07T00:37:41;7.50;99.90
47576;DHT22;33304;52.456;13.328;2024-03-07T00:40:09;7.50;99.90
47576;DHT22;33304;52.456;13.328;2024-03-07T00:42:36;7.60;99.90
47576;DHT22;33304;52.456;13.328;2024-03-07T00:45:04;7.60;99.90
47576;DHT22;33304;52.456;13.328;2024-03-07T00:47:32;7.50;99.90
47576;DHT22;33304;52.456;13.328;2024-03-07T00:50:00;7.50;99.90
47576;DHT22;33304;52.456;13.328;2024-03-07T00:52:28;7.60;99.90
47576;DHT22;33304;52.456;13.328;2024-03-07T00:54:55;7.60;99.90
47576;DHT22;33304;52.456;13.328;2024-03-07T00:57:22;7.60;99.70
47576;DHT22;33304;52.456;13.328;2024-03-07T00:59:49;7.60;99.40
47576;DHT22;33304;52.456;13.328;2024-03-07T01:02:16;7.60;99.00
47576;DHT22;33304;52.456;13.328;2024-03-07T01:04:44;7.60;98.90
47576;DHT22;33304;52.456;13.328;2024-03-07T01:07:12;7.50;99.40
47576;DHT22;33304;52.456;13.328;2024-03-07T01:09:39;7.50;99.20
47576;DHT22;33304;52.456;13.328;2024-03-07T01:12:07;7.50;98.50
47576;DHT22;33304;52.456;13.328;2024-03-07T01:14:35;7.50;98.40
47576;DHT22;33304;52.456;13.328;2024-03-07T01:17:03;7.50;98.20
47576;DHT22;33304;52.456;13.328;2024-03-07T01:19:32;7.50;97.20
47576;DHT22;33304;52.456;13.328;2024-03-07T01:22:00;7.50;97.00
47576;DHT22;33304;52.456;13.328;2024-03-07T01:24:28;7.50;97.50
47576;DHT22;33304;52.456;13.328;2024-03-07T01:26:55;7.50;97.50
47576;DHT22;33304;52.456;13.328;2024-03-07T01:29:22;7.50;97.10
47576;DHT22;33304;52.456;13.328;2024-03-07T01:31:50;7.50;96.80
47576;DHT22;33304;52.456;13.328;2024-03-07T01:34:17;7.40;95.80
47576;DHT22;33304;52.456;13.328;2024-03-07T01:36:44;7.50;94.70
47576;DHT22;33304;52.456;13.328;2024-03-07T01:39:11;7.40;95.10
47576;DHT22;33304;52.456;13.328;2024-03-07T01:41:39;7.30;94.40
47576;DHT22;33304;52.456;13.328;2024-03-07T01:44:07;7.30;93.70
47576;DHT22;33304;52.456;13.328;2024-03-07T01:46:34;7.20;94.00
47576;DHT22;33304;52.456;13.328;2024-03-07T01:49:01;7.20;94.00
47576;DHT22;33304;52.456;13.328;2024-03-07T01:51:28;7.10;93.50
47576;DHT22;33304;52.456;13.328;2024-03-07T01:53:56;7.00;93.60
47576;DHT22;33304;52.456;13.328;2024-03-07T01:56:23;7.00;94.30
47576;DHT22;33304;52.456;13.328;2024-03-07T01:58:52;7.00;93.50
47576;DHT22;33304;52.456;13.328;2024-03-07T02:01:20;7.00;93.20
47576;DHT22;33304;52.456;13.328;2024-03-07T02:03:47;7.00;93.50
47576;DHT22;33304;52.456;13.328;2024-03-07T02:06:14;6.90;93.40
47576;DHT22;33304;52.456;13.328;2024-03-07T02:08:41;6.90;92.90
47576;DHT22;33304;52.456;13.328;2024-03-07T02:11:08;6.80;92.80
47576;DHT22;33304;52.456;13.328;2024-03-07T02:13:36;6.70;93.10
47576;DHT22;33304;52.456;13.328;2024-03-07T02:16:05;6.70;93.30
47576;DHT22;33304;52.456;13.328;2024-03-07T02:18:33;6.60;93.70
47576;DHT22;33304;52.456;13.328;2024-03-07T02:21:07;6.60;93.60
47576;DHT22;33304;52.456;13.328;2024-03-07T02:23:34;6.70;94.20
47576;DHT22;33304;52.456;13.328;2024-03-07T02:26:02;6.70;93.90
47576;DHT22;33304;52.456;13.328;2024-03-07T02:28:29;6.60;93.80
47576;DHT22;33304;52.456;13.328;2024-03-07T02:30:56;6.80;93.60
47576;DHT22;33304;52.456;13.328;2024-03-07T02:33:24;6.70;93.10
47576;DHT22;33304;52.456;13.328;2024-03-07T02:35:51;6.70;92.80
47576;DHT22;33304;52.456;13.328;2024-03-07T02:38:20;6.60;93.70
47576;DHT22;33304;52.456;13.328;2024-03-07T02:40:47;6.60;94.20
47576;DHT22;33304;52.456;13.328;2024-03-07T02:43:14;6.60;94.20
47576;DHT22;33304;52.456;13.328;2024-03-07T02:45:41;6.60;95.00
47576;DHT22;33304;52.456;13.328;2024-03-07T02:48:08;6.60;95.00
47576;DHT22;33304;52.456;13.328;2024-03-07T02:50:36;6.50;95.50
47576;DHT22;33304;52.456;13.328;2024-03-07T02:53:04;6.50;96.20
47576;DHT22;33304;52.456;13.328;2024-03-07T02:55:32;6.50;96.30
47576;DHT22;33304;52.456;13.328;2024-03-07T02:58:00;6.50;97.30
47576;DHT22;33304;52.456;13.328;2024-03-07T03:00:27;6.50;96.80
47576;DHT22;33304;52.456;13.328;2024-03-07T03:02:56;6.50;96.80
47576;DHT22;33304;52.456;13.328;2024-03-07T03:05:23;6.40;97.60
47576;DHT22;33304;52.456;13.328;2024-03-07T03:07:50;6.40;97.40
47576;DHT22;33304;52.456;13.328;2024-03-07T03:10:21;6.40;97.80
47576;DHT22;33304;52.456;13.328;2024-03-07T03:12:54;6.40;97.50
47576;DHT22;33304;52.456;13.328;2024-03-07T03:15:22;6.30;98.50
47576;DHT22;33304;52.456;13.328;2024-03-07T03:17:49;6.40;98.40
47576;DHT22;33304;52.456;13.328;2024-03-07T03:20:17;6.40;98.40
47576;DHT22;33304;52.456;13.328;2024-03-07T03:22:52;6.30;98.40
47576;DHT22;33304;52.456;13.328;2024-03-07T03:25:19;6.30;98.40
47576;DHT22;33304;52.456;13.328;2024-03-07T03:27:47;6.30;98.40
47576;DHT22;33304;52.456;13.328;2024-03-07T03:30:16;6.30;98.40
47576;DHT22;33304;52.456;13.328;2024-03-07T03:32:45;6.30;98.40
47576;DHT22;33304;52.456;13.328;2024-03-07T03:35:13;6.30;98.30
47576;DHT22;33304;52.456;13.328;2024-03-07T03:37:41;6.20;98.20
47576;DHT22;33304;52.456;13.328;2024-03-07T03:40:10;6.20;98.30
47576;DHT22;33304;52.456;13.328;2024-03-07T03:42:37;6.10;98.30
47576;DHT22;33304;52.456;13.328;2024-03-07T03:45:05;6.10;98.80
47576;DHT22;33304;52.456;13.328;2024-03-07T03:47:35;6.10;99.10
47576;DHT22;33304;52.456;13.328;2024-03-07T03:50:03;6.10;99.30
47576;DHT22;33304;52.456;13.328;2024-03-07T03:52:31;6.10;98.30
47576;DHT22;33304;52.456;13.328;2024-03-07T03:54:58;6.00;99.10
47576;DHT22;33304;52.456;13.328;2024-03-07T03:57:25;6.00;99.00
47576;DHT22;33304;52.456;13.328;2024-03-07T03:59:52;6.00;99.10
47576;DHT22;33304;52.456;13.328;2024-03-07T04:02:20;6.10;98.80
47576;DHT22;33304;52.456;13.328;2024-03-07T04:04:49;6.10;98.30
47576;DHT22;33304;52.456;13.328;2024-03-07T04:07:17;6.10;97.70
47576;DHT22;33304;52.456;13.328;2024-03-07T04:09:45;6.10;96.90
47576;DHT22;33304;52.456;13.328;2024-03-07T04:12:12;6.10;96.70
47576;DHT22;33304;52.456;13.328;2024-03-07T04:14:41;6.00;97.10
47576;DHT22;33304;52.456;13.328;2024-03-07T04:17:09;5.90;96.90
47576;DHT22;33304;52.456;13.328;2024-03-07T04:19:39;5.90;97.40
47576;DHT22;33304;52.456;13.328;2024-03-07T04:22:08;5.80;97.40
47576;DHT22;33304;52.456;13.328;2024-03-07T04:24:35;5.70;97.40
47576;DHT22;33304;52.456;13.328;2024-03-07T04:27:04;5.60;97.80
47576;DHT22;33304;52.456;13.328;2024-03-07T04:29:32;5.60;98.00
47576;DHT22;33304;52.456;13.328;2024-03-07T04:32:01;5.60;97.60
47576;DHT22;33304;52.456;13.328;2024-03-07T04:34:29;5.50;97.10
47576;DHT22;33304;52.456;13.328;2024-03-07T04:36:56;5.50;96.80
47576;DHT22;33304;52.456;13.328;2024-03-07T04:39:25;5.40;97.10
47576;DHT22;33304;52.456;13.328;2024-03-07T04:41:58;5.40;97.40
47576;DHT22;33304;52.456;13.328;2024-03-07T04:44:27;5.30;97.10
47576;DHT22;33304;52.456;13.328;2024-03-07T04:46:54;5.30;97.40
47576;DHT22;33304;52.456;13.328;2024-03-07T04:49:22;5.30;97.40
47576;DHT22;33304;52.456;13.328;2024-03-07T04:51:50;5.30;96.50
47576;DHT22;33304;52.456;13.328;2024-03-07T04:54:17;5.30;96.30
47576;DHT22;33304;52.456;13.328;2024-03-07T04:56:46;5.30;96.00
47576;DHT22;33304;52.456;13.328;2024-03-07T04:59:14;5.20;96.20
47576;DHT22;33304;52.456;13.328;2024-03-07T05:01:42;5.10;96.10
47576;DHT22;33304;52.456;13.328;2024-03-07T05:04:10;5.10;96.30
47576;DHT22;33304;52.456;13.328;2024-03-07T05:06:38;5.20;96.00
47576;DHT22;33304;52.456;13.328;2024-03-07T05:09:06;5.10;96.70
47576;DHT22;33304;52.456;13.328;2024-03-07T05:11:35;5.00;97.30
47576;DHT22;33304;52.456;13.328;2024-03-07T05:14:03;5.00;96.90
47576;DHT22;33304;52.456;13.328;2024-03-07T05:16:31;5.00;96.90
47576;DHT22;33304;52.456;13.328;2024-03-07T05:18:58;5.00;97.40
47576;DHT22;33304;52.456;13.328;2024-03-07T05:21:26;5.00;97.40
47576;DHT22;33304;52.456;13.328;2024-03-07T05:24:06;5.00;97.20
47576;DHT22;33304;52.456;13.328;2024-03-07T05:26:34;5.00;97.80
47576;DHT22;33304;52.456;13.328;2024-03-07T05:29:04;4.90;96.50
47576;DHT22;33304;52.456;13.328;2024-03-07T05:31:33;4.90;97.00
47576;DHT22;33304;52.456;13.328;2024-03-07T05:34:01;4.80;98.00
47576;DHT22;33304;52.456;13.328;2024-03-07T05:36:31;4.80;97.80
47576;DHT22;33304;52.456;13.328;2024-03-07T05:38:58;4.70;99.20
47576;DHT22;33304;52.456;13.328;2024-03-07T05:41:26;4.70;98.80
47576;DHT22;33304;52.456;13.328;2024-03-07T05:43:55;4.70;98.50
47576;DHT22;33304;52.456;13.328;2024-03-07T05:46:23;4.70;98.90
47576;DHT22;33304;52.456;13.328;2024-03-07T05:48:50;4.70;98.90
47576;DHT22;33304;52.456;13.328;2024-03-07T05:51:22;4.80;98.30
47576;DHT22;33304;52.456;13.328;2024-03-07T05:53:50;4.80;97.60
47576;DHT22;33304;52.456;13.328;2024-03-07T05:56:17;4.80;96.60
47576;DHT22;33304;52.456;13.328;2024-03-07T05:58:44;4.70;96.70
47576;DHT22;33304;52.456;13.328;2024-03-07T06:01:11;4.80;95.90
47576;DHT22;33304;52.456;13.328;2024-03-07T06:03:41;4.80;95.90
47576;DHT22;33304;52.456;13.328;2024-03-07T06:06:08;4.80;97.00
47576;DHT22;33304;52.456;13.328;2024-03-07T06:08:37;4.70;96.20
47576;DHT22;33304;52.456;13.328;2024-03-07T06:11:08;4.70;97.00
47576;DHT22;33304;52.456;13.328;2024-03-07T06:13:35;4.70;97.30
47576;DHT22;33304;52.456;13.328;2024-03-07T06:16:03;4.80;97.80
47576;DHT22;33304;52.456;13.328;2024-03-07T06:18:34;4.70;96.50
47576;DHT22;33304;52.456;13.328;2024-03-07T06:21:03;4.70;96.70
47576;DHT22;33304;52.456;13.328;2024-03-07T06:23:31;4.70;97.00
47576;DHT22;33304;52.456;13.328;2024-03-07T06:25:58;4.70;96.40
47576;DHT22;33304;52.456;13.328;2024-03-07T06:28:27;4.70;96.20
47576;DHT22;33304;52.456;13.328;2024-03-07T06:30:55;4.70;95.50
47576;DHT22;33304;52.456;13.328;2024-03-07T06:33:22;4.70;95.00
47576;DHT22;33304;52.456;13.328;2024-03-07T06:35:51;4.60;94.60
47576;DHT22;33304;52.456;13.328;2024-03-07T06:38:20;4.60;92.60
47576;DHT22;33304;52.456;13.328;2024-03-07T06:40:47;4.60;90.80
47576;DHT22;33304;52.456;13.328;2024-03-07T06:43:14;4.60;89.10
47576;DHT22;33304;52.456;13.328;2024-03-07T06:45:41;4.60;85.70
47576;DHT22;33304;52.456;13.328;2024-03-07T06:48:09;4.60;78.20
47576;DHT22;33304;52.456;13.328;2024-03-07T06:50:37;4.60;76.70
47576;DHT22;33304;52.456;13.328;2024-03-07T06:53:04;4.70;73.20
47576;DHT22;33304;52.456;13.328;2024-03-07T06:55:34;4.70;68.20
47576;DHT22;33304;52.456;13.328;2024-03-07T06:58:01;4.70;65.90
47576;DHT22;33304;52.456;13.328;2024-03-07T07:00:30;4.70;64.80
47576;DHT22;33304;52.456;13.328;2024-03-07T07:03:01;4.80;61.80
47576;DHT22;33304;52.456;13.328;2024-03-07T07:05:30;4.80;61.80
47576;DHT22;33304;52.456;13.328;2024-03-07T07:07:57;4.80;56.40
47576;DHT22;33304;52.456;13.328;2024-03-07T07:10:25;4.80;55.70
47576;DHT22;33304;52.456;13.328;2024-03-07T07:12:54;4.90;55.30
47576;DHT22;33304;52.456;13.328;2024-03-07T07:15:21;4.90;51.00
47576;DHT22;33304;52.456;13.328;2024-03-07T07:17:49;4.80;46.10
47576;DHT22;33304;52.456;13.328;2024-03-07T07:20:16;4.90;46.00
47576;DHT22;33304;52.456;13.328;2024-03-07T07:22:45;4.90;45.50
47576;DHT22;33304;52.456;13.328;2024-03-07T07:25:13;5.00;43.80
47576;DHT22;33304;52.456;13.328;2024-03-07T07:27:41;5.00;40.50
47576;DHT22;33304;52.456;13.328;2024-03-07T07:30:12;5.00;39.90
47576;DHT22;33304;52.456;13.328;2024-03-07T07:32:40;4.90;36.80
47576;DHT22;33304;52.456;13.328;2024-03-07T07:35:07;4.90;34.90
47576;DHT22;33304;52.456;13.328;2024-03-07T07:37:38;4.90;35.40
47576;DHT22;33304;52.456;13.328;2024-03-07T07:40:06;5.00;34.10
47576;DHT22;33304;52.456;13.328;2024-03-07T07:42:35;5.10;32.70
47576;DHT22;33304;52.456;13.328;2024-03-07T07:45:06;5.10;31.60
47576;DHT22;33304;52.456;13.328;2024-03-07T07:47:39;5.20;33.20
47576;DHT22;33304;52.456;13.328;2024-03-07T07:50:08;5.20;28.90
47576;DHT22;33304;52.456;13.328;2024-03-07T07:52:42;5.30;29.00
47576;DHT22;33304;52.456;13.328;2024-03-07T07:55:09;5.20;28.70
47576;DHT22;33304;52.456;13.328;2024-03-07T07:57:41;5.30;29.00
47576;DHT22;33304;52.456;13.328;2024-03-07T08:00:11;5.30;27.70
47576;DHT22;33304;52.456;13.328;2024-03-07T08:02:52;5.40;26.40
47576;DHT22;33304;52.456;13.328;2024-03-07T08:05:20;5.50;26.80
47576;DHT22;33304;52.456;13.328;2024-03-07T08:07:49;5.50;25.00
47576;DHT22;33304;52.456;13.328;2024-03-07T08:10:17;5.60;24.40
47576;DHT22;33304;52.456;13.328;2024-03-07T08:12:45;5.60;24.90
47576;DHT22;33304;52.456;13.328;2024-03-07T08:15:12;5.60;24.10
47576;DHT22;33304;52.456;13.328;2024-03-07T08:17:41;5.70;24.00
47576;DHT22;33304;52.456;13.328;2024-03-07T08:20:12;5.80;23.30
47576;DHT22;33304;52.456;13.328;2024-03-07T08:22:40;5.90;23.30
47576;DHT22;33304;52.456;13.328;2024-03-07T08:25:09;5.90;23.50
47576;DHT22;33304;52.456;13.328;2024-03-07T08:27:48;6.00;22.30
47576;DHT22;33304;52.456;13.328;2024-03-07T08:30:33;6.10;22.60
47576;DHT22;33304;52.456;13.328;2024-03-07T08:33:01;6.20;21.50
47576;DHT22;33304;52.456;13.328;2024-03-07T08:35:32;6.20;20.40
47576;DHT22;33304;52.456;13.328;2024-03-07T08:37:59;6.30;20.40
47576;DHT22;33304;52.456;13.328;2024-03-07T08:40:27;6.30;19.80
47576;DHT22;33304;52.456;13.328;2024-03-07T08:42:57;6.30;20.20
47576;DHT22;33304;52.456;13.328;2024-03-07T08:45:24;6.40;20.30
47576;DHT22;33304;52.456;13.328;2024-03-07T08:47:53;6.40;18.60
47576;DHT22;33304;52.456;13.328;2024-03-07T08:50:21;6.50;18.10
47576;DHT22;33304;52.456;13.328;2024-03-07T08:52:50;6.40;17.30
47576;DHT22;33304;52.456;13.328;2024-03-07T08:55:20;6.50;15.70
47576;DHT22;33304;52.456;13.328;2024-03-07T08:57:47;6.60;15.80
47576;DHT22;33304;52.456;13.328;2024-03-07T09:00:16;6.70;15.00
47576;DHT22;33304;52.456;13.328;2024-03-07T09:02:48;6.60;13.80
47576;DHT22;33304;52.456;13.328;2024-03-07T09:05:16;6.80;14.20
47576;DHT22;33304;52.456;13.328;2024-03-07T09:07:43;6.90;13.50
47576;DHT22;33304;52.456;13.328;2024-03-07T09:10:12;6.90;14.20
47576;DHT22;33304;52.456;13.328;2024-03-07T09:12:40;7.00;13.40
47576;DHT22;33304;52.456;13.328;2024-03-07T09:15:08;7.20;13.70
47576;DHT22;33304;52.456;13.328;2024-03-07T09:17:38;7.20;11.30
47576;DHT22;33304;52.456;13.328;2024-03-07T09:20:06;7.30;12.00
47576;DHT22;33304;52.456;13.328;2024-03-07T09:22:34;7.60;11.50
47576;DHT22;33304;52.456;13.328;2024-03-07T09:25:02;7.50;8.90
47576;DHT22;33304;52.456;13.328;2024-03-07T09:27:30;7.60;9.70
47576;DHT22;33304;52.456;13.328;2024-03-07T09:29:57;7.70;8.70
47576;DHT22;33304;52.456;13.328;2024-03-07T09:32:24;7.60;6.60
47576;DHT22;33304;52.456;13.328;2024-03-07T09:34:53;7.60;6.50
47576;DHT22;33304;52.456;13.328;2024-03-07T09:37:20;7.60;6.50
47576;DHT22;33304;52.456;13.328;2024-03-07T09:39:49;7.50;4.90
47576;DHT22;33304;52.456;13.328;2024-03-07T09:42:18;7.50;5.40
47576;DHT22;33304;52.456;13.328;2024-03-07T09:44:47;7.60;5.20
47576;DHT22;33304;52.456;13.328;2024-03-07T09:47:16;7.80;4.70
47576;DHT22;33304;52.456;13.328;2024-03-07T09:49:45;7.90;3.00
47576;DHT22;33304;52.456;13.328;2024-03-07T09:52:14;8.00;2.70
47576;DHT22;33304;52.456;13.328;2024-03-07T09:54:42;7.90;1.70
47576;DHT22;33304;52.456;13.328;2024-03-07T09:57:11;7.90;1.70
47576;DHT22;33304;52.456;13.328;2024-03-07T09:59:39;8.20;1.90
47576;DHT22;33304;52.456;13.328;2024-03-07T10:02:12;8.30;2.10
47576;DHT22;33304;52.456;13.328;2024-03-07T10:04:43;8.30;1.40
47576;DHT22;33304;52.456;13.328;2024-03-07T10:07:11;8.20;1.00
47576;DHT22;33304;52.456;13.328;2024-03-07T10:09:39;8.20;1.00
47576;DHT22;33304;52.456;13.328;2024-03-07T10:12:08;8.30;1.00
47576;DHT22;33304;52.456;13.328;2024-03-07T10:14:38;8.30;1.00
47576;DHT22;33304;52.456;13.328;2024-03-07T10:17:05;8.50;1.00
47576;DHT22;33304;52.456;13.328;2024-03-07T10:19:36;8.50;1.00
47576;DHT22;33304;52.456;13.328;2024-03-07T10:22:03;8.60;1.00
47576;DHT22;33304;52.456;13.328;2024-03-07T10:24:32;8.60;1.00
47576;DHT22;33304;52.456;13.328;2024-03-07T10:27:00;8.70;1.00
47576;DHT22;33304;52.456;13.328;2024-03-07T10:29:27;8.80;1.00
47576;DHT22;33304;52.456;13.328;2024-03-07T10:31:55;8.90;1.00
47576;DHT22;33304;52.456;13.328;2024-03-07T10:34:22;8.90;1.00
47576;DHT22;33304;52.456;13.328;2024-03-07T10:36:52;9.00;1.00
47576;DHT22;33304;52.456;13.328;2024-03-07T10:39:20;8.90;1.00
47576;DHT22;33304;52.456;13.328;2024-03-07T10:41:49;8.80;1.00
47576;DHT22;33304;52.456;13.328;2024-03-07T10:44:19;8.80;1.00
47576;DHT22;33304;52.456;13.328;2024-03-07T10:46:52;8.90;1.00
47576;DHT22;33304;52.456;13.328;2024-03-07T10:49:21;8.90;1.00
47576;DHT22;33304;52.456;13.328;2024-03-07T10:52:01;9.00;1.00
47576;DHT22;33304;52.456;13.328;2024-03-07T10:54:34;9.20;1.00
47576;DHT22;33304;52.456;13.328;2024-03-07T10:57:15;9.30;1.00
47576;DHT22;33304;52.456;13.328;2024-03-07T10:59:49;9.30;1.00
47576;DHT22;33304;52.456;13.328;2024-03-07T11:02:27;9.20;1.00
47576;DHT22;33304;52.456;13.328;2024-03-07T11:04:58;9.40;1.00
47576;DHT22;33304;52.456;13.328;2024-03-07T11:07:28;9.60;1.00
47576;DHT22;33304;52.456;13.328;2024-03-07T11:09:57;9.70;1.00
47576;DHT22;33304;52.456;13.328;2024-03-07T11:12:24;9.60;1.00
47576;DHT22;33304;52.456;13.328;2024-03-07T11:14:53;9.70;1.00
47576;DHT22;33304;52.456;13.328;2024-03-07T11:17:22;9.80;1.00
47576;DHT22;33304;52.456;13.328;2024-03-07T11:19:50;10.00;1.00
47576;DHT22;33304;52.456;13.328;2024-03-07T11:22:31;10.10;1.00
47576;DHT22;33304;52.456;13.328;2024-03-07T11:25:00;9.90;1.00
47576;DHT22;33304;52.456;13.328;2024-03-07T11:27:33;9.80;1.00
47576;DHT22;33304;52.456;13.328;2024-03-07T11:30:04;9.70;1.00
47576;DHT22;33304;52.456;13.328;2024-03-07T11:32:34;9.70;1.00
47576;DHT22;33304;52.456;13.328;2024-03-07T11:35:11;9.80;1.00
47576;DHT22;33304;52.456;13.328;2024-03-07T11:37:43;9.80;1.00
47576;DHT22;33304;52.456;13.328;2024-03-07T11:40:19;9.70;1.00
47576;DHT22;33304;52.456;13.328;2024-03-07T11:43:03;9.70;1.00
47576;DHT22;33304;52.456;13.328;2024-03-07T11:45:32;9.90;1.00
47576;DHT22;33304;52.456;13.328;2024-03-07T11:48:05;10.20;1.00
47576;DHT22;33304;52.456;13.328;2024-03-07T11:50:34;10.20;1.00
47576;DHT22;33304;52.456;13.328;2024-03-07T11:53:04;10.00;1.00
47576;DHT22;33304;52.456;13.328;2024-03-07T11:55:32;10.20;1.00
47576;DHT22;33304;52.456;13.328;2024-03-07T11:58:08;10.20;1.00
47576;DHT22;33304;52.456;13.328;2024-03-07T12:00:38;10.30;1.00
47576;DHT22;33304;52.456;13.328;2024-03-07T12:03:08;10.40;1.00
47576;DHT22;33304;52.456;13.328;2024-03-07T12:05:40;10.40;1.00
47576;DHT22;33304;52.456;13.328;2024-03-07T12:08:10;10.40;1.00
47576;DHT22;33304;52.456;13.328;2024-03-07T12:10:37;10.50;1.00
47576;DHT22;33304;52.456;13.328;2024-03-07T12:13:06;10.60;1.00
47576;DHT22;33304;52.456;13.328;2024-03-07T12:15:35;10.90;1.00
47576;DHT22;33304;52.456;13.328;2024-03-07T12:18:04;10.70;1.00
47576;DHT22;33304;52.456;13.328;2024-03-07T12:20:36;10.90;1.00
47576;DHT22;33304;52.456;13.328;2024-03-07T12:23:04;10.90;1.00
47576;DHT22;33304;52.456;13.328;2024-03-07T12:25:35;10.80;1.00
47576;DHT22;33304;52.456;13.328;2024-03-07T12:28:03;11.10;1.00
47576;DHT22;33304;52.456;13.328;2024-03-07T12:30:33;11.10;1.00
47576;DHT22;33304;52.456;13.328;2024-03-07T12:33:01;10.90;1.00
47576;DHT22;33304;52.456;13.328;2024-03-07T12:35:33;10.90;1.00
47576;DHT22;33304;52.456;13.328;2024-03-07T12:38:00;11.00;1.00
47576;DHT22;33304;52.456;13.328;2024-03-07T12:40:29;11.00;1.00
47576;DHT22;33304;52.456;13.328;2024-03-07T12:43:01;11.10;1.00
47576;DHT22;33304;52.456;13.328;2024-03-07T12:45:29;11.30;1.00
47576;DHT22;33304;52.456;13.328;2024-03-07T12:47:59;11.30;1.00
47576;DHT22;33304;52.456;13.328;2024-03-07T12:50:30;11.50;1.00
47576;DHT22;33304;52.456;13.328;2024-03-07T12:53:01;11.30;1.00
47576;DHT22;33304;52.456;13.328;2024-03-07T12:55:31;11.40;1.00
47576;DHT22;33304;52.456;13.328;2024-03-07T12:58:00;11.20;1.00
47576;DHT22;33304;52.456;13.328;2024-03-07T13:00:27;11.40;1.00
47576;DHT22;33304;52.456;13.328;2024-03-07T13:02:56;11.60;1.00
47576;DHT22;33304;52.456;13.328;2024-03-07T13:05:23;11.90;1.00
47576;DHT22;33304;52.456;13.328;2024-03-07T13:07:51;12.10;1.00
47576;DHT22;33304;52.456;13.328;2024-03-07T13:10:19;11.80;1.00
47576;DHT22;33304;52.456;13.328;2024-03-07T13:12:46;11.60;1.00
47576;DHT22;33304;52.456;13.328;2024-03-07T13:15:16;12.30;1.00
47576;DHT22;33304;52.456;13.328;2024-03-07T13:17:43;12.70;1.00
47576;DHT22;33304;52.456;13.328;2024-03-07T13:20:11;13.40;1.00
47576;DHT22;33304;52.456;13.328;2024-03-07T13:22:41;13.70;1.00
47576;DHT22;33304;52.456;13.328;2024-03-07T13:25:11;14.40;1.00
47576;DHT22;33304;52.456;13.328;2024-03-07T13:27:44;14.30;1.00
47576;DHT22;33304;52.456;13.328;2024-03-07T13:30:18;14.50;1.00
47576;DHT22;33304;52.456;13.328;2024-03-07T13:32:54;14.90;1.00
47576;DHT22;33304;52.456;13.328;2024-03-07T13:35:21;15.30;1.00
47576;DHT22;33304;52.456;13.328;2024-03-07T13:37:49;15.40;1.00
47576;DHT22;33304;52.456;13.328;2024-03-07T13:40:16;14.80;1.00
47576;DHT22;33304;52.456;13.328;2024-03-07T13:42:51;14.50;1.00
47576;DHT22;33304;52.456;13.328;2024-03-07T13:45:23;14.20;1.00
47576;DHT22;33304;52.456;13.328;2024-03-07T13:47:53;14.80;1.00
47576;DHT22;33304;52.456;13.328;2024-03-07T13:50:22;14.60;1.00
47576;DHT22;33304;52.456;13.328;2024-03-07T13:52:50;14.10;1.00
47576;DHT22;33304;52.456;13.328;2024-03-07T13:55:41;14.10;1.00
47576;DHT22;33304;52.456;13.328;2024-03-07T13:58:20;14.90;1.00
47576;DHT22;33304;52.456;13.328;2024-03-07T14:00:56;14.60;1.00
47576;DHT22;33304;52.456;13.328;2024-03-07T14:04:01;14.80;1.00
47576;DHT22;33304;52.456;13.328;2024-03-07T14:06:49;14.60;1.00
47576;DHT22;33304;52.456;13.328;2024-03-07T14:12:58;15.20;1.00
47576;DHT22;33304;52.456;13.328;2024-03-07T14:19:09;15.00;1.00
47576;DHT22;33304;52.456;13.328;2024-03-07T14:21:53;15.10;1.00
47576;DHT22;33304;52.456;13.328;2024-03-07T14:24:43;14.70;1.00
47576;DHT22;33304;52.456;13.328;2024-03-07T14:27:26;14.20;1.00
47576;DHT22;33304;52.456;13.328;2024-03-07T14:30:23;14.00;1.00
47576;DHT22;33304;52.456;13.328;2024-03-07T14:32:53;14.10;1.00
47576;DHT22;33304;52.456;13.328;2024-03-07T14:35:30;14.10;1.00
47576;DHT22;33304;52.456;13.328;2024-03-07T14:38:06;14.10;1.00
47576;DHT22;33304;52.456;13.328;2024-03-07T14:40:33;14.20;1.00
47576;DHT22;33304;52.456;13.328;2024-03-07T14:43:03;14.00;1.00
47576;DHT22;33304;52.456;13.328;2024-03-07T14:45:36;14.10;1.00
47576;DHT22;33304;52.456;13.328;2024-03-07T14:48:04;14.30;1.00
47576;DHT22;33304;52.456;13.328;2024-03-07T14:50:37;14.90;1.00
47576;DHT22;33304;52.456;13.328;2024-03-07T14:53:04;15.60;1.00
47576;DHT22;33304;52.456;13.328;2024-03-07T14:55:31;15.40;1.00
47576;DHT22;33304;52.456;13.328;2024-03-07T14:57:59;14.70;1.00
47576;DHT22;33304;52.456;13.328;2024-03-07T15:00:28;14.20;1.00
47576;DHT22;33304;52.456;13.328;2024-03-07T15:03:00;14.90;1.00
47576;DHT22;33304;52.456;13.328;2024-03-07T15:05:28;14.80;1.00
47576;DHT22;33304;52.456;13.328;2024-03-07T15:07:57;14.70;1.00
47576;DHT22;33304;52.456;13.328;2024-03-07T15:10:27;14.50;1.00
47576;DHT22;33304;52.456;13.328;2024-03-07T15:12:55;14.00;1.00
47576;DHT22;33304;52.456;13.328;2024-03-07T15:15:22;13.90;1.00
47576;DHT22;33304;52.456;13.328;2024-03-07T15:17:50;14.50;1.00
47576;DHT22;33304;52.456;13.328;2024-03-07T15:20:17;14.20;1.00
47576;DHT22;33304;52.456;13.328;2024-03-07T15:22:51;13.90;1.00
47576;DHT22;33304;52.456;13.328;2024-03-07T15:25:20;13.60;1.00
47576;DHT22;33304;52.456;13.328;2024-03-07T15:27:48;13.80;1.00
47576;DHT22;33304;52.456;13.328;2024-03-07T15:30:16;13.60;1.00
47576;DHT22;33304;52.456;13.328;2024-03-07T15:32:44;12.90;1.00
47576;DHT22;33304;52.456;13.328;2024-03-07T15:35:13;12.50;1.00
47576;DHT22;33304;52.456;13.328;2024-03-07T15:37:44;12.40;1.00
47576;DHT22;33304;52.456;13.328;2024-03-07T15:40:11;12.40;1.00
47576;DHT22;33304;52.456;13.328;2024-03-07T15:42:40;13.00;1.00
47576;DHT22;33304;52.456;13.328;2024-03-07T15:45:08;13.00;1.00
47576;DHT22;33304;52.456;13.328;2024-03-07T15:47:42;13.10;1.00
47576;DHT22;33304;52.456;13.328;2024-03-07T15:50:10;12.60;1.00
47576;DHT22;33304;52.456;13.328;2024-03-07T15:52:39;12.10;1.00